Saint David's, Bermuda

10:02 PM AST on January 26, 2015 (GMT -0400)
Bermuda International | Change Station
CLOSE
Current Station
Airport
Location: St. David's,
Elevation: 10 ft
Nearby Weather Stations

Elev 10 ft 32.36 °N, 64.68 °W | Updated 7 minutes ago

Overcast
Overcast
70 °F
Feels Like 70 °F
N
32
Wind Variable Wind from SW

Today
High -- | Low -- °F
--% Chance of Precip.
Yesterday
High -- | Low -- °F
Precip. -- in
7:16 AM 5:46 PM
Waxing Crescent, 49% visible
Pressure 29.65 in
Visibility 5.6 miles
Clouds Mostly Cloudy 700 ft
Mostly Cloudy 1100 ft
Overcast 4500 ft
Dew Point 66 °F
Humidity 88%
Rainfall 0.00 in
Snow Depth Not available.
UV 0 out of 12
Pollen Not available.
Air Quality Not available.
Flu Activity Not available.
METAR TXKF 270155Z 22028KT 9000 BKN007CB BKN011 OVC045 21/19 Q1004 RMK OCNL LTGIC N ASOCTD TS 15KM N MOV NE

More Conditions Fewer Conditions

Pressure 29.65 in
Visibility 5.6 miles
Clouds Mostly Cloudy 700 ft
Mostly Cloudy 1100 ft
Overcast 4500 ft
Dew Point 66 °F
Humidity 88%
Rainfall 0.00 in
Snow Depth Not available.
UV 0 out of 12
Pollen Not available.
Air Quality Not available.
Flu Activity Not available.
METAR TXKF 270155Z 22028KT 9000 BKN007CB BKN011 OVC045 21/19 Q1004 RMK OCNL LTGIC N ASOCTD TS 15KM N MOV NE

More Conditions Fewer Conditions

10-Day Weather Forecast

Almanac

Astronomy

Jan. 26, 2015 Rise Set
Actual Time
Civil Twilight
Nautical Twilight
Astronomical Twilight
Moon
Length of Visible Light
Length of Day
Tomorrow will be .
, % of the Moon is Illuminated

Today's Extremes

Country Highs Country Lows

Community

WunderPhotos

Upload Photos

1,790,471 photos uploaded!

WunderBlogs® & News

Nearby

Air Quality

  Air Quality AQ Index Pollutant
Not available.

Snow Depth

Station Depth Elevation

Earthquake Activity

City Distance Mag. Time & Date
Minimum magnitude displayed is 2.5.

Coastal Water Temperatures

Place Temperature

Nearby Weather Stations